Terminal Aerodrome Forecast
Issued by NWS Twin Cities, MN

Home | Current Version | Previous Version | Text Only | Print | Product List | Glossary Off
Versions: 1 2 3 4 5 6 7 8 9 10 11 12 13 14 15

048
FTUS43 KMPX 161729
TAFSTC
TAF
KSTC 161729Z 1618/1718 15010KT P6SM BKN250
     FM170500 17005KT P6SM SCT250
     FM170900 VRB03KT P6SM SCT020=

USA.gov is the U.S. government's official web portal to all federal, state and local government web resources and services.